createdAt,value
2022-09-13T00:02:11.838Z,10.20
2022-09-13T00:04:38.014Z,10.20
2022-09-13T00:07:04.234Z,10.10
2022-09-13T00:09:30.984Z,10.20
2022-09-13T00:11:57.192Z,10.40
2022-09-13T00:14:26.515Z,10.40
2022-09-13T00:16:52.957Z,10.50
2022-09-13T00:19:19.129Z,10.50
2022-09-13T00:21:45.403Z,10.60
2022-09-13T00:24:13.364Z,10.60
2022-09-13T00:26:39.513Z,10.60
2022-09-13T00:29:05.680Z,10.60
2022-09-13T00:31:32.584Z,10.60
2022-09-13T00:33:59.860Z,10.50
2022-09-13T00:36:26.655Z,10.50
2022-09-13T00:38:52.839Z,10.30
2022-09-13T00:41:19.937Z,10.20
2022-09-13T00:43:53.054Z,10.20
2022-09-13T00:47:22.132Z,10.10
2022-09-13T00:49:49.070Z,10.10
2022-09-13T00:52:17.346Z,10.20
2022-09-13T00:54:45.730Z,10.20
2022-09-13T00:57:11.930Z,10.00
2022-09-13T00:59:45.300Z,10.00
2022-09-13T01:02:11.575Z,10.00
2022-09-13T01:04:39.126Z,10.00
2022-09-13T01:07:08.634Z,9.90
2022-09-13T01:09:40.828Z,9.90
2022-09-13T01:13:05.543Z,10.00
2022-09-13T01:15:31.820Z,10.00
2022-09-13T01:17:58.054Z,10.00
2022-09-13T01:20:32.672Z,10.00
2022-09-13T01:24:38.931Z,9.90
2022-09-13T01:27:33.949Z,9.90
2022-09-13T01:33:45.191Z,9.90
2022-09-13T01:37:17.117Z,9.80
2022-09-13T01:40:03.166Z,9.70
2022-09-13T01:43:26.475Z,9.70
2022-09-13T01:49:15.159Z,9.70
2022-09-13T01:52:46.192Z,9.60
2022-09-13T01:56:11.197Z,9.60
2022-09-13T01:59:01.596Z,9.60
2022-09-13T02:02:53.843Z,9.60
2022-09-13T02:05:33.585Z,9.60
2022-09-13T02:08:24.796Z,9.70
2022-09-13T02:10:54.354Z,9.70
2022-09-13T02:13:26.769Z,9.60
2022-09-13T02:15:56.517Z,9.70
2022-09-13T02:18:34.797Z,9.70
2022-09-13T02:21:06.434Z,9.70
2022-09-13T02:23:37.258Z,9.70
2022-09-13T02:26:04.437Z,9.70
2022-09-13T02:28:36.306Z,9.50
2022-09-13T02:31:03.051Z,9.50
2022-09-13T02:33:33.037Z,9.50
2022-09-13T02:36:07.814Z,9.50
2022-09-13T02:39:02.947Z,9.50
2022-09-13T02:42:03.956Z,9.50
2022-09-13T02:44:38.545Z,9.60
2022-09-13T02:48:18.834Z,9.60
2022-09-13T02:51:06.197Z,9.60
2022-09-13T02:57:53.540Z,9.60
2022-09-13T03:00:20.905Z,9.60
2022-09-13T03:02:47.331Z,9.60
2022-09-13T03:05:13.490Z,9.60
2022-09-13T03:07:40.230Z,9.60
2022-09-13T03:10:08.198Z,9.60
2022-09-13T03:12:57.500Z,9.60
2022-09-13T03:16:04.475Z,9.50
2022-09-13T03:19:10.424Z,9.50
2022-09-13T03:24:25.487Z,9.50
2022-09-13T03:28:30.019Z,9.60
2022-09-13T03:32:41.111Z,9.60
2022-09-13T03:35:40.243Z,9.60
2022-09-13T03:39:17.588Z,9.60
2022-09-13T03:41:47.759Z,9.60
2022-09-13T03:44:14.223Z,9.50
2022-09-13T03:46:42.148Z,9.50
2022-09-13T03:49:11.470Z,9.50
2022-09-13T03:51:38.074Z,9.60
2022-09-13T03:54:06.720Z,9.60
2022-09-13T03:56:32.892Z,9.60
2022-09-13T03:58:59.097Z,9.60
2022-09-13T04:01:25.439Z,9.70
2022-09-13T04:03:56.416Z,9.80
2022-09-13T04:06:23.159Z,9.80
2022-09-13T04:08:49.565Z,9.80
2022-09-13T04:11:16.139Z,9.80
2022-09-13T04:13:42.580Z,9.80
2022-09-13T04:16:09.794Z,9.80
2022-09-13T04:18:36.086Z,9.80
2022-09-13T04:21:02.315Z,9.80
2022-09-13T04:23:29.398Z,9.80
2022-09-13T04:26:00.746Z,9.90
2022-09-13T04:28:27.563Z,9.90
2022-09-13T04:30:53.723Z,10.00
2022-09-13T04:33:19.994Z,10.00
2022-09-13T04:35:46.631Z,10.10
2022-09-13T04:38:13.005Z,10.10
2022-09-13T04:40:39.924Z,10.10
2022-09-13T04:43:06.108Z,10.10
2022-09-13T04:45:33.252Z,10.20
2022-09-13T04:47:59.548Z,10.30
2022-09-13T04:50:27.092Z,10.30
2022-09-13T04:52:54.672Z,10.40
2022-09-13T04:55:21.472Z,10.50
2022-09-13T04:57:49.716Z,10.60
2022-09-13T05:00:16.913Z,10.70
2022-09-13T05:02:44.113Z,10.80
2022-09-13T05:05:10.398Z,10.90
2022-09-13T05:07:36.906Z,10.90
2022-09-13T05:10:04.570Z,10.90
2022-09-13T05:12:31.155Z,11.00
2022-09-13T05:15:00.421Z,11.20
2022-09-13T05:17:28.932Z,11.30
2022-09-13T05:19:55.172Z,11.50
2022-09-13T05:22:21.377Z,11.50
2022-09-13T05:24:47.920Z,11.50
2022-09-13T05:27:14.305Z,11.60
2022-09-13T05:29:41.503Z,11.80
2022-09-13T05:32:07.791Z,11.70
2022-09-13T05:34:34.708Z,11.80
2022-09-13T05:37:00.908Z,12.00
2022-09-13T05:39:33.832Z,11.90
2022-09-13T05:42:06.172Z,12.00
2022-09-13T05:44:32.336Z,11.90
2022-09-13T05:46:59.276Z,12.00
2022-09-13T05:49:25.604Z,12.10
2022-09-13T05:51:51.816Z,12.10
2022-09-13T05:54:18.782Z,12.10
2022-09-13T05:56:45.008Z,12.40
2022-09-13T05:59:13.024Z,10.80
2022-09-13T06:01:39.334Z,13.20
2022-09-13T06:04:05.608Z,13.30
2022-09-13T06:06:31.805Z,13.70
2022-09-13T06:08:58.958Z,14.00
2022-09-13T06:11:26.388Z,14.10
2022-09-13T06:13:53.314Z,14.30
2022-09-13T06:16:19.995Z,14.40
2022-09-13T06:18:46.684Z,14.20
2022-09-13T06:21:18.712Z,14.00
2022-09-13T06:23:51.868Z,14.10
2022-09-13T06:26:19.586Z,15.30
2022-09-13T06:28:51.148Z,15.80
2022-09-13T06:31:19.547Z,15.70
2022-09-13T06:33:46.376Z,15.70
2022-09-13T06:36:14.765Z,15.90
2022-09-13T06:38:41.079Z,16.60
2022-09-13T06:41:15.123Z,17.30
2022-09-13T06:43:42.344Z,17.70
2022-09-13T06:46:11.684Z,18.20
2022-09-13T06:48:39.941Z,18.60
2022-09-13T06:51:10.868Z,18.50
2022-09-13T06:53:38.383Z,19.20
2022-09-13T06:56:09.879Z,19.50
2022-09-13T06:58:36.292Z,20.00
2022-09-13T07:01:11.404Z,20.90
2022-09-13T07:03:48.859Z,21.70
2022-09-13T07:06:22.556Z,21.60
2022-09-13T07:08:51.685Z,22.30
2022-09-13T07:11:18.631Z,22.40
2022-09-13T07:13:49.493Z,23.10
2022-09-13T07:16:15.800Z,23.60
2022-09-13T07:18:42.879Z,23.50
2022-09-13T07:21:10.129Z,23.90
2022-09-13T07:23:37.992Z,23.40
2022-09-13T07:26:05.638Z,23.30
2022-09-13T07:28:38.125Z,23.30
2022-09-13T07:31:18.711Z,23.20
2022-09-13T07:33:45.396Z,23.00
2022-09-13T07:36:13.911Z,22.60
2022-09-13T07:38:43.201Z,22.70
2022-09-13T07:41:14.655Z,23.40
2022-09-13T07:43:41.196Z,22.80
2022-09-13T07:46:19.548Z,22.70
2022-09-13T07:48:46.267Z,22.30
2022-09-13T07:51:17.625Z,23.10
2022-09-13T07:53:45.616Z,24.60
2022-09-13T07:56:20.346Z,22.90
2022-09-13T07:58:47.802Z,23.00
2022-09-13T08:01:15.661Z,23.20
2022-09-13T08:03:42.163Z,23.00
2022-09-13T08:06:09.286Z,22.80
2022-09-13T08:08:36.856Z,22.60
2022-09-13T08:11:05.149Z,21.80
2022-09-13T08:13:35.249Z,21.20
2022-09-13T08:16:05.744Z,21.10
2022-09-13T08:18:36.609Z,21.10
2022-09-13T08:21:03.351Z,21.40
2022-09-13T08:23:31.014Z,21.90
2022-09-13T08:26:02.389Z,21.70
2022-09-13T08:28:29.034Z,23.60
2022-09-13T08:30:55.313Z,22.50
2022-09-13T08:33:22.801Z,24.00
2022-09-13T08:35:51.650Z,25.10
2022-09-13T08:38:19.109Z,25.60
2022-09-13T08:40:57.919Z,25.80
2022-09-13T08:44:30.216Z,28.10
2022-09-13T08:47:38.948Z,25.90
2022-09-13T08:50:18.609Z,26.50
2022-09-13T08:54:16.668Z,26.90
2022-09-13T08:57:04.175Z,26.60
2022-09-13T09:01:20.245Z,26.80
2022-09-13T09:04:12.643Z,26.50
2022-09-13T09:06:39.280Z,26.70
2022-09-13T09:09:16.990Z,26.90
2022-09-13T09:11:59.887Z,27.10
2022-09-13T09:14:34.992Z,27.30
2022-09-13T09:17:06.572Z,27.60
2022-09-13T09:19:35.879Z,27.20
2022-09-13T09:22:05.784Z,26.40
2022-09-13T09:24:36.119Z,26.10
2022-09-13T09:27:04.701Z,25.40
2022-09-13T09:29:35.482Z,25.10
2022-09-13T09:33:14.059Z,26.00
2022-09-13T09:39:38.283Z,27.00
2022-09-13T09:42:08.885Z,27.20
2022-09-13T09:44:35.217Z,25.50
2022-09-13T09:47:13.732Z,25.10
2022-09-13T09:50:10.381Z,24.50
2022-09-13T09:53:28.103Z,24.30
2022-09-13T09:56:20.077Z,24.00
2022-09-13T09:58:46.983Z,23.50
2022-09-13T10:01:35.225Z,23.10
2022-09-13T10:04:40.054Z,22.70
2022-09-13T10:07:33.936Z,22.60
2022-09-13T10:10:07.948Z,22.30
2022-09-13T10:12:37.477Z,22.00
2022-09-13T10:15:15.908Z,21.80
2022-09-13T10:17:43.009Z,21.50
2022-09-13T10:20:20.976Z,21.20
2022-09-13T10:23:19.186Z,21.00
2022-09-13T10:26:09.890Z,20.80
2022-09-13T10:29:14.209Z,20.60
2022-09-13T10:31:46.587Z,20.40
2022-09-13T10:34:34.129Z,20.30
2022-09-13T10:37:18.736Z,20.30
2022-09-13T10:40:06.741Z,20.40
2022-09-13T10:42:33.140Z,20.70
2022-09-13T10:45:07.778Z,21.10
2022-09-13T10:47:47.796Z,21.50
2022-09-13T10:50:25.571Z,21.90
2022-09-13T10:52:59.263Z,22.10
2022-09-13T10:55:52.151Z,22.20
2022-09-13T10:58:19.027Z,22.50
2022-09-13T11:01:25.559Z,20.70
2022-09-13T11:05:19.624Z,22.50
2022-09-13T11:09:39.666Z,23.50
2022-09-13T11:12:21.227Z,24.40
2022-09-13T11:15:04.423Z,24.40
2022-09-13T11:20:08.645Z,24.00
2022-09-13T11:24:46.518Z,23.90
2022-09-13T11:28:59.356Z,23.90
2022-09-13T11:32:20.001Z,25.10
2022-09-13T11:35:13.904Z,25.60
2022-09-13T11:40:52.759Z,25.60
2022-09-13T11:44:22.862Z,25.20
2022-09-13T11:53:52.435Z,24.80
2022-09-13T11:56:41.855Z,24.10
2022-09-13T11:59:59.474Z,23.60
2022-09-13T12:09:36.052Z,23.50
2022-09-13T12:12:11.595Z,23.30
2022-09-13T12:16:17.038Z,23.00
2022-09-13T12:18:49.292Z,22.80
2022-09-13T12:21:23.765Z,22.70
2022-09-13T12:24:00.721Z,22.60
2022-09-13T12:26:33.199Z,22.60
2022-09-13T12:29:12.128Z,22.70
2022-09-13T12:31:39.453Z,22.80
2022-09-13T12:34:07.436Z,23.00
2022-09-13T12:39:17.011Z,23.00
2022-09-13T12:44:00.502Z,22.90
2022-09-13T12:47:36.028Z,22.70
2022-09-13T12:51:25.670Z,22.60
2022-09-13T12:54:28.762Z,22.40
2022-09-13T12:57:08.713Z,22.20
2022-09-13T13:00:11.086Z,22.20
2022-09-13T13:02:54.566Z,22.00
2022-09-13T13:05:35.731Z,22.00
2022-09-13T13:08:05.847Z,21.90
2022-09-13T13:10:37.308Z,21.90
2022-09-13T13:13:33.789Z,21.80
2022-09-13T13:16:03.603Z,21.90
2022-09-13T13:18:52.680Z,21.90
2022-09-13T13:21:38.642Z,22.10
2022-09-13T13:27:31.754Z,22.30
2022-09-13T13:30:58.525Z,22.50
2022-09-13T13:33:27.319Z,22.50
2022-09-13T13:35:53.568Z,22.70
2022-09-13T13:38:40.994Z,22.70
2022-09-13T13:41:27.443Z,22.80
2022-09-13T13:43:53.679Z,22.70
2022-09-13T13:46:26.740Z,22.60
2022-09-13T13:48:53.169Z,22.50
2022-09-13T13:51:24.531Z,22.40
2022-09-13T13:53:57.917Z,22.30
2022-09-13T13:56:44.663Z,22.30
2022-09-13T13:59:32.567Z,22.30
2022-09-13T14:02:01.477Z,22.20
2022-09-13T14:04:59.245Z,22.20
2022-09-13T14:08:03.799Z,22.50
2022-09-13T14:11:14.212Z,22.20
2022-09-13T14:14:16.914Z,22.30
2022-09-13T14:17:04.593Z,22.30
2022-09-13T14:19:31.895Z,22.40
2022-09-13T14:22:19.681Z,22.40
2022-09-13T14:24:53.408Z,22.50
2022-09-13T14:27:27.887Z,22.40
2022-09-13T14:30:03.787Z,22.40
2022-09-13T14:32:45.085Z,22.50
2022-09-13T14:35:37.936Z,22.40
2022-09-13T14:38:13.301Z,22.40
2022-09-13T14:40:40.025Z,22.50
2022-09-13T14:43:19.027Z,22.50
2022-09-13T14:45:47.062Z,22.30
2022-09-13T14:48:23.159Z,22.20
2022-09-13T14:51:13.991Z,22.20
2022-09-13T14:53:40.579Z,22.30
2022-09-13T14:56:45.937Z,22.30
2022-09-13T15:01:49.932Z,22.30
2022-09-13T15:04:17.408Z,22.20
2022-09-13T15:06:44.883Z,22.00
2022-09-13T15:09:18.480Z,21.90
2022-09-13T15:11:59.139Z,21.80
2022-09-13T15:14:38.580Z,21.70
2022-09-13T15:17:13.713Z,21.60
2022-09-13T15:20:01.606Z,21.60
2022-09-13T15:22:30.951Z,21.50
2022-09-13T15:24:58.584Z,21.50
2022-09-13T15:27:45.331Z,21.50
2022-09-13T15:30:26.251Z,21.50
2022-09-13T15:33:19.085Z,21.40
2022-09-13T15:35:47.232Z,21.50
2022-09-13T15:38:25.947Z,21.60
2022-09-13T15:41:16.814Z,21.70
2022-09-13T15:43:43.870Z,21.70
2022-09-13T15:46:16.376Z,21.60
2022-09-13T15:48:55.423Z,21.60
2022-09-13T15:51:23.667Z,21.60
2022-09-13T15:53:49.932Z,21.50
2022-09-13T15:56:19.088Z,21.50
2022-09-13T15:58:45.425Z,21.50
2022-09-13T16:01:15.421Z,21.60
2022-09-13T16:03:42.606Z,21.50
2022-09-13T16:06:08.968Z,21.40
2022-09-13T16:08:36.424Z,21.30
2022-09-13T16:11:05.219Z,21.30
2022-09-13T16:13:31.812Z,21.10
2022-09-13T16:15:58.992Z,21.10
2022-09-13T16:18:25.586Z,21.00
2022-09-13T16:20:52.027Z,21.00
2022-09-13T16:23:24.392Z,21.00
2022-09-13T16:25:53.592Z,21.00
2022-09-13T16:28:20.653Z,20.90
2022-09-13T16:30:48.333Z,20.80
2022-09-13T16:33:14.537Z,20.70
2022-09-13T16:35:40.692Z,20.60
2022-09-13T16:38:07.462Z,20.60
2022-09-13T16:40:34.282Z,20.60
2022-09-13T16:43:00.765Z,20.50
2022-09-13T16:45:27.032Z,20.40
2022-09-13T16:47:53.817Z,20.30
2022-09-13T16:50:20.583Z,20.20
2022-09-13T16:52:47.616Z,20.20
2022-09-13T16:55:13.841Z,20.10
2022-09-13T16:57:40.103Z,20.00
2022-09-13T17:00:09.748Z,20.00
2022-09-13T17:02:36.574Z,19.90
2022-09-13T17:05:04.688Z,19.90
2022-09-13T17:07:34.315Z,19.90
2022-09-13T17:10:02.055Z,19.90
2022-09-13T17:12:28.825Z,19.80
2022-09-13T17:14:56.866Z,19.80
2022-09-13T17:17:23.780Z,19.70
2022-09-13T17:19:51.062Z,19.60
2022-09-13T17:22:19.819Z,19.60
2022-09-13T17:24:46.386Z,19.50
2022-09-13T17:27:13.529Z,19.50
2022-09-13T17:29:41.706Z,19.50
2022-09-13T17:32:09.268Z,19.40
2022-09-13T17:34:36.005Z,19.30
2022-09-13T17:37:03.471Z,19.20
2022-09-13T17:39:30.857Z,19.10
2022-09-13T17:41:59.659Z,19.00
2022-09-13T17:44:27.889Z,18.90
2022-09-13T17:46:55.632Z,18.80
2022-09-13T17:49:23.714Z,18.70
2022-09-13T17:51:51.446Z,18.70
2022-09-13T17:54:18.933Z,18.70
2022-09-13T17:56:45.338Z,18.70
2022-09-13T17:59:18.553Z,18.70
2022-09-13T18:01:47.952Z,18.80
2022-09-13T18:04:16.086Z,18.80
2022-09-13T18:06:42.764Z,18.80
2022-09-13T18:09:14.333Z,18.70
2022-09-13T18:11:42.019Z,18.60
2022-09-13T18:14:13.795Z,18.60
2022-09-13T18:16:42.326Z,18.60
2022-09-13T18:19:10.730Z,18.60
2022-09-13T18:21:37.841Z,18.50
2022-09-13T18:24:06.272Z,18.40
2022-09-13T18:26:37.381Z,18.20
2022-09-13T18:29:05.808Z,19.30
2022-09-13T18:31:34.636Z,18.00
2022-09-13T18:34:07.823Z,17.80
2022-09-13T18:36:40.220Z,17.70
2022-09-13T18:39:13.321Z,17.70
2022-09-13T18:41:41.895Z,17.60
2022-09-13T18:44:18.374Z,17.50
2022-09-13T18:46:53.442Z,17.30
2022-09-13T18:49:21.523Z,17.20
2022-09-13T18:51:49.214Z,17.10
2022-09-13T18:54:19.692Z,17.10
2022-09-13T18:56:47.385Z,16.90
2022-09-13T18:59:13.941Z,16.80
2022-09-13T19:01:49.195Z,16.70
2022-09-13T19:04:18.119Z,16.70
2022-09-13T19:06:51.729Z,16.90
2022-09-13T19:09:25.813Z,16.70
2022-09-13T19:11:56.463Z,16.60
2022-09-13T19:14:24.884Z,16.30
2022-09-13T19:16:53.573Z,16.50
2022-09-13T19:19:20.935Z,16.50
2022-09-13T19:21:47.967Z,16.50
2022-09-13T19:24:18.433Z,16.50
2022-09-13T19:26:47.656Z,16.50
2022-09-13T19:29:15.489Z,16.50
2022-09-13T19:31:43.926Z,16.40
2022-09-13T19:34:11.414Z,16.30
2022-09-13T19:36:39.279Z,16.30
2022-09-13T19:39:06.767Z,16.20
2022-09-13T19:41:33.825Z,16.20
2022-09-13T19:44:02.097Z,16.10
2022-09-13T19:46:34.208Z,16.00
2022-09-13T19:49:01.507Z,16.00
2022-09-13T19:51:36.377Z,15.90
2022-09-13T19:54:04.522Z,15.80
2022-09-13T19:56:38.185Z,15.70
2022-09-13T19:59:06.642Z,15.60
2022-09-13T20:01:41.880Z,15.50
2022-09-13T20:04:15.643Z,15.50
2022-09-13T20:06:46.805Z,15.40
2022-09-13T20:09:15.099Z,15.40
2022-09-13T20:11:44.959Z,15.30
2022-09-13T20:14:17.934Z,15.30
2022-09-13T20:16:44.886Z,15.20
2022-09-13T20:22:17.123Z,15.10
2022-09-13T20:24:43.452Z,15.00
2022-09-13T20:27:10.773Z,15.00
2022-09-13T20:29:37.459Z,14.90
2022-09-13T20:32:04.563Z,14.90
2022-09-13T20:34:31.132Z,14.90
2022-09-13T20:36:58.008Z,14.80
2022-09-13T20:39:25.737Z,14.80
2022-09-13T20:41:54.322Z,14.80
2022-09-13T20:44:21.918Z,14.80
2022-09-13T20:46:48.980Z,14.70
2022-09-13T20:49:16.484Z,14.60
2022-09-13T20:51:45.487Z,14.50
2022-09-13T20:54:13.096Z,14.50
2022-09-13T20:56:39.813Z,14.40
2022-09-13T20:59:06.810Z,14.40
2022-09-13T21:01:33.251Z,14.30
2022-09-13T21:04:00.121Z,14.30
2022-09-13T21:06:28.474Z,14.20
2022-09-13T21:08:58.069Z,14.20
2022-09-13T21:11:29.374Z,14.10
2022-09-13T21:14:00.277Z,14.10
2022-09-13T21:16:32.020Z,14.10
2022-09-13T21:19:09.119Z,14.10
2022-09-13T21:21:37.821Z,14.20
2022-09-13T21:24:05.284Z,14.10
2022-09-13T21:26:31.918Z,14.00
2022-09-13T21:28:58.453Z,14.00
2022-09-13T21:31:26.743Z,14.00
2022-09-13T21:34:00.895Z,14.00
2022-09-13T21:36:27.428Z,14.00
2022-09-13T21:38:55.233Z,14.10
2022-09-13T21:41:22.147Z,14.20
2022-09-13T21:43:49.182Z,14.30
2022-09-13T21:46:21.541Z,14.40
2022-09-13T21:48:49.399Z,14.50
2022-09-13T21:51:55.151Z,14.60
2022-09-13T21:54:22.325Z,14.60
2022-09-13T21:56:54.266Z,14.70
2022-09-13T21:59:21.246Z,14.70
2022-09-13T22:01:50.640Z,14.80
2022-09-13T22:04:18.606Z,14.70
2022-09-13T22:06:46.074Z,14.80
2022-09-13T22:09:13.205Z,14.70
2022-09-13T22:11:42.891Z,14.80
2022-09-13T22:14:18.051Z,14.70
2022-09-13T22:16:49.819Z,14.60
2022-09-13T22:19:26.192Z,14.50
2022-09-13T22:21:54.979Z,14.30
2022-09-13T22:24:22.257Z,14.30
2022-09-13T22:26:49.619Z,14.70
2022-09-13T22:29:16.121Z,14.20
2022-09-13T22:31:43.548Z,14.20
2022-09-13T22:34:17.973Z,14.10
2022-09-13T22:36:44.257Z,14.10
2022-09-13T22:39:14.568Z,14.10
2022-09-13T22:41:41.179Z,14.10
2022-09-13T22:44:07.598Z,14.00
2022-09-13T22:46:38.948Z,14.00
2022-09-13T22:49:05.637Z,14.00
2022-09-13T22:51:32.132Z,14.00
2022-09-13T22:53:59.830Z,14.00
2022-09-13T22:56:32.444Z,13.90
2022-09-13T22:59:16.537Z,13.80
2022-09-13T23:01:43.657Z,13.80
2022-09-13T23:04:10.646Z,13.80
2022-09-13T23:06:36.987Z,13.80
2022-09-13T23:09:04.873Z,13.90
2022-09-13T23:11:38.297Z,14.00
2022-09-13T23:14:06.150Z,14.10
2022-09-13T23:16:34.635Z,14.20
2022-09-13T23:19:08.694Z,14.30
2022-09-13T23:21:38.634Z,14.50
2022-09-13T23:24:06.189Z,14.60
2022-09-13T23:26:33.567Z,14.60
2022-09-13T23:29:00.911Z,14.70
2022-09-13T23:31:32.231Z,14.70
2022-09-13T23:34:01.294Z,14.70
2022-09-13T23:36:30.007Z,14.80
2022-09-13T23:38:57.567Z,14.90
2022-09-13T23:41:24.945Z,14.90
2022-09-13T23:43:52.059Z,15.00
2022-09-13T23:46:18.599Z,15.00
2022-09-13T23:48:44.978Z,15.00
2022-09-13T23:51:16.415Z,15.00
2022-09-13T23:53:42.834Z,15.00
2022-09-13T23:56:09.395Z,14.90
2022-09-13T23:58:36.803Z,14.80
